Hacoda, Alabama
Current Conditions -  °F | °C
As of 10:58 AM on Thursday 23 Oct 2014 (Local Time) from K0J4 Reporting Station
Clear Clear  
Wind Chill: 67°   Ceiling: Unl
Heat Index: 67°   Visibility: 10mi
Dew Point: 47°   Wind: 6mph
Humidity: 49%   Direction: 90°E
Pressure: 30.14"   Gusts: NA
Location:  31.0519°N, 86.3486°W
Report Text: K0J4 231558Z AUTO 09005KT 10SM CLR 19/08 A3014 RMK AO2 SLP202 T01940083 $
Loading
Personal Weather Stations






























Interactive Weather Map
Tropical Storm Tracking
New forecast layout! Learn more

10-Day Weather Forecast

Advertisements
Track Severe Weather on mobile